createdAt,value
2023-04-23T00:03:51.345Z,4.93
2023-04-23T00:09:08.066Z,4.43
2023-04-23T00:14:23.888Z,5.15
2023-04-23T00:19:39.450Z,4.60
2023-04-23T00:24:55.293Z,4.72
2023-04-23T00:30:11.779Z,4.63
2023-04-23T00:35:27.770Z,4.68
2023-04-23T00:40:43.686Z,4.30
2023-04-23T00:46:00.178Z,5.20
2023-04-23T00:51:17.684Z,4.55
2023-04-23T00:56:34.603Z,4.35
2023-04-23T01:01:50.601Z,3.92
2023-04-23T01:07:06.345Z,4.63
2023-04-23T01:12:23.455Z,4.28
2023-04-23T01:17:39.631Z,4.80
2023-04-23T01:22:55.596Z,4.15
2023-04-23T01:28:11.204Z,3.88
2023-04-23T01:33:26.932Z,4.18
2023-04-23T01:38:43.083Z,4.72
2023-04-23T01:43:59.855Z,4.80
2023-04-23T01:49:15.956Z,4.82
2023-04-23T01:54:31.624Z,3.95
2023-04-23T01:59:47.442Z,4.25
2023-04-23T02:05:04.931Z,5.43
2023-04-23T02:10:21.017Z,4.57
2023-04-23T02:15:38.525Z,5.35
2023-04-23T02:20:54.955Z,3.92
2023-04-23T02:26:11.063Z,4.45
2023-04-23T02:31:26.993Z,4.97
2023-04-23T02:36:43.125Z,4.53
2023-04-23T02:41:59.563Z,4.28
2023-04-23T02:47:15.152Z,4.30
2023-04-23T02:52:30.790Z,4.53
2023-04-23T02:57:46.701Z,5.07
2023-04-23T03:03:02.701Z,5.00
2023-04-23T03:08:18.480Z,4.55
2023-04-23T03:13:33.875Z,4.30
2023-04-23T03:18:50.158Z,5.65
2023-04-23T03:24:05.941Z,5.25
2023-04-23T03:29:21.374Z,4.72
2023-04-23T03:34:36.752Z,4.57
2023-04-23T03:39:52.681Z,4.90
2023-04-23T03:45:09.981Z,4.65
2023-04-23T03:50:26.108Z,4.70
2023-04-23T03:55:42.337Z,4.68
2023-04-23T04:00:58.332Z,4.30
2023-04-23T04:06:14.164Z,4.80
2023-04-23T04:11:30.126Z,5.03
2023-04-23T04:16:45.608Z,4.53
2023-04-23T04:22:03.755Z,5.40
2023-04-23T04:27:19.366Z,5.63
2023-04-23T04:32:35.906Z,4.80
2023-04-23T04:37:54.197Z,4.05
2023-04-23T04:43:10.618Z,4.28
2023-04-23T04:48:26.417Z,5.20
2023-04-23T04:53:42.292Z,4.95
2023-04-23T04:58:58.339Z,4.25
2023-04-23T05:04:14.321Z,4.82
2023-04-23T05:09:30.107Z,5.72
2023-04-23T05:14:46.940Z,4.90
2023-04-23T05:20:03.749Z,4.25
2023-04-23T05:25:19.080Z,5.15
2023-04-23T05:30:35.070Z,5.50
2023-04-23T05:35:50.856Z,5.20
2023-04-23T05:41:06.782Z,4.28
2023-04-23T05:46:22.366Z,4.38
2023-04-23T05:51:38.083Z,5.32
2023-04-23T05:56:54.789Z,3.72
2023-04-23T06:02:11.998Z,3.00
2023-04-23T06:07:27.989Z,2.78
2023-04-23T06:12:43.418Z,2.78
2023-04-23T06:17:59.220Z,2.97
2023-04-23T06:23:15.094Z,2.83
2023-04-23T06:28:30.755Z,2.45
2023-04-23T06:33:46.706Z,1.92
2023-04-23T06:39:01.961Z,2.35
2023-04-23T06:44:17.292Z,2.40
2023-04-23T06:49:33.157Z,3.00
2023-04-23T06:54:49.220Z,3.10
2023-04-23T07:00:09.154Z,2.75
2023-04-23T07:05:24.870Z,2.53
2023-04-23T07:10:40.740Z,2.38
2023-04-23T07:15:56.676Z,2.08
2023-04-23T07:21:12.354Z,1.88
2023-04-23T07:26:28.276Z,2.10
2023-04-23T07:31:44.584Z,2.20
2023-04-23T07:37:00.424Z,2.00
2023-04-23T07:42:15.896Z,2.17
2023-04-23T07:47:31.530Z,1.65
2023-04-23T07:52:47.551Z,2.58
2023-04-23T07:58:03.133Z,1.98
2023-04-23T08:03:19.166Z,2.47
2023-04-23T08:08:36.529Z,2.30
2023-04-23T08:13:52.035Z,2.30
2023-04-23T08:19:07.933Z,2.10
2023-04-23T08:24:23.924Z,2.13
2023-04-23T08:29:39.934Z,2.30
2023-04-23T08:34:55.543Z,2.33
2023-04-23T08:40:13.227Z,1.85
2023-04-23T08:45:31.122Z,2.47
2023-04-23T08:50:47.152Z,2.15
2023-04-23T08:56:03.901Z,2.53
2023-04-23T09:01:19.808Z,2.55
2023-04-23T09:06:36.386Z,2.28
2023-04-23T09:11:54.192Z,2.67
2023-04-23T09:17:10.585Z,2.25
2023-04-23T09:22:47.108Z,1.90
2023-04-23T09:28:07.789Z,2.15
2023-04-23T09:38:41.818Z,2.78
2023-04-23T09:43:58.210Z,2.75
2023-04-23T09:49:15.344Z,3.05
2023-04-23T09:54:31.710Z,2.72
2023-04-23T09:59:51.460Z,2.40
2023-04-23T10:10:51.511Z,3.13
2023-04-23T10:16:22.542Z,2.45
2023-04-23T10:27:02.028Z,2.70
2023-04-23T10:32:18.561Z,2.83
2023-04-23T10:37:36.210Z,2.42
2023-04-23T10:42:53.201Z,3.08
2023-04-23T10:48:09.732Z,3.53
2023-04-23T10:53:26.664Z,2.75
2023-04-23T10:58:52.037Z,3.17
2023-04-23T11:04:24.743Z,2.95
2023-04-23T11:09:48.244Z,2.80
2023-04-23T11:15:19.396Z,2.65
2023-04-23T11:20:36.423Z,3.08
2023-04-23T11:25:52.884Z,3.08
2023-04-23T11:31:10.374Z,3.38
2023-04-23T11:36:27.769Z,2.72
2023-04-23T11:41:43.963Z,2.58
2023-04-23T11:47:05.046Z,3.13
2023-04-23T11:52:20.975Z,3.05
2023-04-23T11:57:41.339Z,2.78
2023-04-23T12:03:02.356Z,2.83
2023-04-23T12:08:20.484Z,2.45
2023-04-23T12:13:39.545Z,3.13
2023-04-23T12:18:55.233Z,3.00
2023-04-23T12:24:10.688Z,3.17
2023-04-23T12:29:29.511Z,2.83
2023-04-23T12:34:55.830Z,2.72
2023-04-23T12:40:11.714Z,2.85
2023-04-23T12:45:36.720Z,2.53
2023-04-23T12:50:52.698Z,3.13
2023-04-23T12:56:08.644Z,2.63
2023-04-23T13:01:24.604Z,3.45
2023-04-23T13:06:41.850Z,2.90
2023-04-23T13:11:57.960Z,3.40
2023-04-23T13:17:13.470Z,3.00
2023-04-23T13:22:30.016Z,2.63
2023-04-23T13:27:46.263Z,2.38
2023-04-23T13:33:01.982Z,1.90
2023-04-23T13:38:18.083Z,2.22
2023-04-23T13:43:33.897Z,2.42
2023-04-23T13:48:49.801Z,1.67
2023-04-23T13:54:05.482Z,2.90
2023-04-23T13:59:21.800Z,2.28
2023-04-23T14:04:37.827Z,2.40
2023-04-23T14:09:53.679Z,2.45
2023-04-23T14:15:10.149Z,2.25
2023-04-23T14:20:25.942Z,2.40
2023-04-23T14:25:46.783Z,2.53
2023-04-23T14:31:02.926Z,2.30
2023-04-23T14:36:19.009Z,2.17
2023-04-23T14:41:36.112Z,2.72
2023-04-23T14:46:52.507Z,3.00
2023-04-23T14:52:07.899Z,2.95
2023-04-23T14:57:23.794Z,2.60
2023-04-23T15:02:46.353Z,2.80
2023-04-23T15:08:02.420Z,3.25
2023-04-23T15:13:38.538Z,2.50
2023-04-23T15:18:54.260Z,2.75
2023-04-23T15:24:10.645Z,3.10
2023-04-23T15:29:26.567Z,2.65
2023-04-23T15:34:42.979Z,3.30
2023-04-23T15:39:58.932Z,3.67
2023-04-23T15:45:15.036Z,6.13
2023-04-23T15:50:30.758Z,2.63
2023-04-23T15:55:46.487Z,2.90
2023-04-23T16:01:03.228Z,3.35
2023-04-23T16:06:19.405Z,3.15
2023-04-23T16:11:36.897Z,3.50
2023-04-23T16:16:52.912Z,3.20
2023-04-23T16:22:08.791Z,4.18
2023-04-23T16:27:25.034Z,3.40
2023-04-23T16:32:40.831Z,3.17
2023-04-23T16:37:56.718Z,3.20
2023-04-23T16:43:12.688Z,2.95
2023-04-23T16:48:28.683Z,2.80
2023-04-23T16:53:44.644Z,2.90
2023-04-23T16:59:00.633Z,2.30
2023-04-23T17:04:16.648Z,2.90
2023-04-23T17:09:32.747Z,2.45
2023-04-23T17:14:48.999Z,2.33
2023-04-23T17:20:07.047Z,1.92
2023-04-23T17:25:22.846Z,1.90
2023-04-23T17:30:38.822Z,2.67
2023-04-23T17:35:56.085Z,2.50
2023-04-23T17:41:11.824Z,2.72
2023-04-23T17:46:27.747Z,2.95
2023-04-23T17:51:43.444Z,2.55
2023-04-23T17:56:59.374Z,2.60
2023-04-23T18:02:16.336Z,2.47
2023-04-23T18:07:32.100Z,2.58
2023-04-23T18:12:48.116Z,2.88
2023-04-23T18:18:04.770Z,3.40
2023-04-23T18:23:21.994Z,3.55
2023-04-23T18:28:37.855Z,2.60
2023-04-23T18:33:59.516Z,3.10
2023-04-23T18:39:15.547Z,3.50
2023-04-23T18:44:32.617Z,4.15
2023-04-23T18:49:57.336Z,4.03
2023-04-23T18:55:12.739Z,4.07
2023-04-23T19:00:28.623Z,5.50
2023-04-23T19:05:44.327Z,7.40
2023-04-23T19:11:00.729Z,5.75
2023-04-23T19:16:18.559Z,3.38
2023-04-23T19:21:34.363Z,3.78
2023-04-23T19:26:50.243Z,3.80
2023-04-23T19:32:06.819Z,3.67
2023-04-23T19:37:22.932Z,3.78
2023-04-23T19:42:38.423Z,3.78
2023-04-23T19:47:54.559Z,3.78
2023-04-23T19:53:10.844Z,3.58
2023-04-23T19:58:26.510Z,3.63
2023-04-23T20:03:44.031Z,4.75
2023-04-23T20:09:18.479Z,4.00
2023-04-23T20:14:35.060Z,4.07
2023-04-23T20:19:50.777Z,3.85
2023-04-23T20:25:08.401Z,4.68
2023-04-23T20:30:24.213Z,4.18
2023-04-23T20:35:42.007Z,4.10
2023-04-23T20:41:02.988Z,4.30
2023-04-23T20:46:19.144Z,4.65
2023-04-23T20:51:34.791Z,4.45
2023-04-23T20:56:54.438Z,4.43
2023-04-23T21:02:13.208Z,5.65
2023-04-23T21:07:29.546Z,4.93
2023-04-23T21:12:46.248Z,4.78
2023-04-23T21:18:02.900Z,4.43
2023-04-23T21:23:18.697Z,4.43
2023-04-23T21:28:34.724Z,4.88
2023-04-23T21:33:50.756Z,3.92
2023-04-23T21:39:08.409Z,4.38
2023-04-23T21:44:24.179Z,3.35
2023-04-23T21:49:40.157Z,5.13
2023-04-23T21:54:56.250Z,4.65
2023-04-23T22:00:14.161Z,5.70
2023-04-23T22:05:30.032Z,5.18
2023-04-23T22:10:45.973Z,5.05
2023-04-23T22:16:04.978Z,4.95
2023-04-23T22:21:22.596Z,4.38
2023-04-23T22:26:38.490Z,5.03
2023-04-23T22:31:54.397Z,5.35
2023-04-23T22:37:10.959Z,4.22
2023-04-23T22:42:26.767Z,4.95
2023-04-23T22:47:42.989Z,4.43
2023-04-23T22:52:58.840Z,5.13
2023-04-23T22:58:15.066Z,4.20
2023-04-23T23:03:30.961Z,4.13
2023-04-23T23:08:46.960Z,4.70
2023-04-23T23:14:04.544Z,4.55
2023-04-23T23:19:21.191Z,3.55
2023-04-23T23:24:36.645Z,4.18
2023-04-23T23:29:52.523Z,4.82
2023-04-23T23:35:09.471Z,4.13
2023-04-23T23:40:25.288Z,4.30
2023-04-23T23:45:41.688Z,4.65
2023-04-23T23:50:57.670Z,3.90
2023-04-23T23:56:13.449Z,4.50
